Time;durP1;ratioP1;P1;durP2;ratioP2;P2;SDS_P1;SDS_P2;PMS_P1;PMS_P2;Temp;Humidity;BMP_temperature;BMP_pressure;BME280_temperature;BME280_humidity;BME280_pressure;Samples;Min_cycle;Max_cycle;Signal;HPM_P1;HPM_P2
2023/07/02 00:00:46;;;;;;;2.83;2.60;;;24.50;87.90;;;;;;6196214;28;89173;-69
2023/07/02 00:03:48;;;;;;;2.90;2.67;;;24.50;88.00;;;;;;6193665;28;88182;-69
2023/07/02 00:06:50;;;;;;;2.92;2.70;;;24.50;87.80;;;;;;6201933;28;88430;-69
2023/07/02 00:09:52;;;;;;;3.38;2.72;;;24.50;87.70;;;;;;6195651;28;89426;-69
2023/07/02 00:12:55;;;;;;;4.68;3.08;;;24.50;87.70;;;;;;6191163;28;89330;-68
2023/07/02 00:15:58;;;;;;;2.80;2.50;;;24.40;88.10;;;;;;6202223;28;90033;-69
2023/07/02 00:19:00;;;;;;;3.30;2.70;;;24.50;87.90;;;;;;6208646;28;89444;-69
2023/07/02 00:22:02;;;;;;;3.47;2.80;;;24.50;87.70;;;;;;6192780;28;89039;-69
2023/07/02 00:25:05;;;;;;;3.50;2.83;;;24.50;87.70;;;;;;6207348;28;89319;-69
2023/07/02 00:28:08;;;;;;;5.95;3.70;;;24.40;87.60;;;;;;6205701;28;89423;-69
2023/07/02 00:31:10;;;;;;;3.08;2.78;;;24.40;87.60;;;;;;6216424;28;89134;-69
2023/07/02 00:34:12;;;;;;;2.80;2.60;;;24.40;87.60;;;;;;6192760;28;89034;-69
2023/07/02 00:37:15;;;;;;;3.28;2.80;;;24.40;87.40;;;;;;6207706;28;88596;-69
2023/07/02 00:40:17;;;;;;;3.05;2.75;;;24.40;87.40;;;;;;6206697;28;89162;-69
2023/07/02 00:43:20;;;;;;;3.10;2.75;;;24.40;87.20;;;;;;6193608;28;89126;-69
2023/07/02 00:46:25;;;;;;;3.20;2.80;;;24.40;87.20;;;;;;6210832;28;88961;-69
2023/07/02 00:49:27;;;;;;;3.25;2.70;;;24.30;86.90;;;;;;6198347;28;90055;-69
2023/07/02 00:52:29;;;;;;;2.67;2.47;;;24.30;86.70;;;;;;6198848;28;87983;-69
2023/07/02 00:55:31;;;;;;;3.08;2.63;;;24.30;86.50;;;;;;6201660;28;89112;-69
2023/07/02 00:58:38;;;;;;;3.15;2.60;;;24.30;86.50;;;;;;6225251;28;89071;-69
2023/07/02 01:01:40;;;;;;;3.58;2.65;;;24.30;86.80;;;;;;6212797;28;89132;-69
2023/07/02 01:04:42;;;;;;;3.47;2.90;;;24.30;87.50;;;;;;6205153;28;88066;-69
2023/07/02 01:07:44;;;;;;;4.50;3.08;;;24.30;88.10;;;;;;6209919;28;89156;-69
2023/07/02 01:10:47;;;;;;;2.88;2.58;;;24.30;89.40;;;;;;6202358;28;88610;-69
2023/07/02 01:13:53;;;;;;;3.88;2.75;;;24.30;88.90;;;;;;6196210;28;89200;-69
2023/07/02 01:16:56;;;;;;;3.00;2.70;;;24.30;89.40;;;;;;6203685;28;90043;-69
2023/07/02 01:20:00;;;;;;;3.20;2.80;;;24.30;90.00;;;;;;6208308;28;89056;-69
2023/07/02 01:23:03;;;;;;;3.28;2.70;;;24.30;90.20;;;;;;6200193;28;89610;-69
2023/07/02 01:26:05;;;;;;;3.28;2.50;;;24.30;90.40;;;;;;6203209;28;89110;-69
2023/07/02 01:29:17;;;;;;;2.63;2.42;;;24.30;90.60;;;;;;6204965;28;89068;-69
2023/07/02 01:32:19;;;;;;;2.80;2.40;;;24.30;90.80;;;;;;6225204;28;89328;-69
2023/07/02 01:35:22;;;;;;;3.92;2.83;;;24.30;90.90;;;;;;6206415;28;88083;-69
2023/07/02 01:38:24;;;;;;;4.22;2.47;;;24.30;91.00;;;;;;6219619;28;88610;-69
2023/07/02 01:41:26;;;;;;;3.25;2.80;;;24.30;91.00;;;;;;6194722;28;89036;-69
2023/07/02 01:44:28;;;;;;;3.25;2.90;;;24.30;91.20;;;;;;6208921;28;89584;-69
2023/07/02 01:47:30;;;;;;;3.70;2.70;;;24.30;91.20;;;;;;6201001;28;89189;-69
2023/07/02 01:50:34;;;;;;;3.15;2.83;;;24.30;91.30;;;;;;6197047;28;89322;-69
2023/07/02 01:53:35;;;;;;;3.53;2.80;;;24.30;91.40;;;;;;6218343;28;89193;-69
2023/07/02 01:56:38;;;;;;;2.97;2.60;;;24.30;91.60;;;;;;6183267;28;88975;-69
2023/07/02 01:59:39;;;;;;;2.70;2.50;;;24.30;91.50;;;;;;6181884;28;88929;-69
2023/07/02 02:02:41;;;;;;;2.80;2.50;;;24.30;91.60;;;;;;6203497;28;89123;-69
2023/07/02 02:05:45;;;;;;;2.72;2.30;;;24.20;91.60;;;;;;6209959;28;88814;-69
2023/07/02 02:08:47;;;;;;;2.67;2.47;;;24.30;91.70;;;;;;6202081;28;88316;-69
2023/07/02 02:11:52;;;;;;;2.58;2.38;;;24.30;91.80;;;;;;6210713;28;89109;-70
2023/07/02 02:14:54;;;;;;;3.40;2.50;;;24.30;91.80;;;;;;6188740;28;89119;-69
2023/07/02 02:17:56;;;;;;;2.70;2.50;;;24.20;92.00;;;;;;6208629;28;91320;-69
2023/07/02 02:20:59;;;;;;;2.47;2.28;;;24.30;92.00;;;;;;6197071;28;89296;-70
2023/07/02 02:24:01;;;;;;;3.42;2.78;;;24.30;92.10;;;;;;6192176;28;89083;-69
2023/07/02 02:27:04;;;;;;;2.80;2.60;;;24.30;92.20;;;;;;6216147;28;89137;-70
2023/07/02 02:30:07;;;;;;;2.50;2.30;;;24.30;92.20;;;;;;6199763;28;89063;-69
2023/07/02 02:33:09;;;;;;;2.72;2.38;;;24.20;92.30;;;;;;6207061;28;89486;-69
2023/07/02 02:36:13;;;;;;;2.78;2.50;;;24.30;92.40;;;;;;6195342;28;89111;-69
2023/07/02 02:39:15;;;;;;;2.95;2.70;;;24.20;92.40;;;;;;6206627;28;88482;-69
2023/07/02 02:42:17;;;;;;;3.00;2.70;;;24.20;92.50;;;;;;6212720;28;89218;-70
2023/07/02 02:45:19;;;;;;;3.22;2.40;;;24.20;92.60;;;;;;6210185;28;89031;-70
2023/07/02 02:48:22;;;;;;;3.78;2.85;;;24.20;92.60;;;;;;6204353;28;90519;-69
2023/07/02 02:51:25;;;;;;;2.58;2.38;;;24.20;92.60;;;;;;6196461;28;89079;-69
2023/07/02 02:54:27;;;;;;;2.85;2.60;;;24.30;92.70;;;;;;6190935;28;88172;-69
2023/07/02 02:57:29;;;;;;;3.55;2.60;;;24.20;92.80;;;;;;6194990;28;89109;-69
2023/07/02 03:00:31;;;;;;;3.35;2.60;;;24.20;92.90;;;;;;6190208;28;88029;-69
2023/07/02 03:03:38;;;;;;;3.13;2.60;;;24.20;93.00;;;;;;6196337;28;89128;-69
2023/07/02 03:06:42;;;;;;;2.63;2.30;;;24.20;93.10;;;;;;6198359;28;89130;-69
2023/07/02 03:09:44;;;;;;;4.45;2.58;;;24.20;93.20;;;;;;6194682;28;87187;-69
2023/07/02 03:12:46;;;;;;;5.45;2.30;;;24.20;93.40;;;;;;6193954;28;89102;-69
2023/07/02 03:15:48;;;;;;;4.53;3.10;;;24.20;94.10;;;;;;6208477;28;89163;-69
2023/07/02 03:18:50;;;;;;;3.90;2.50;;;24.20;94.40;;;;;;6199036;28;90005;-69
2023/07/02 03:21:54;;;;;;;5.82;2.70;;;24.20;94.20;;;;;;6204052;28;89037;-69
2023/07/02 03:24:56;;;;;;;5.55;3.03;;;24.20;94.10;;;;;;6197575;28;89001;-68
2023/07/02 03:27:58;;;;;;;6.25;2.80;;;24.20;94.10;;;;;;6196568;28;88083;-68
2023/07/02 03:31:00;;;;;;;3.45;2.20;;;24.20;94.10;;;;;;6188537;28;89216;-68
2023/07/02 03:34:04;;;;;;;3.67;2.45;;;24.20;94.40;;;;;;6195341;28;89252;-69
2023/07/02 03:37:09;;;;;;;2.40;2.20;;;24.20;94.20;;;;;;6206112;28;89081;-68
2023/07/02 03:40:11;;;;;;;4.70;2.63;;;24.20;94.20;;;;;;6202194;28;88522;-68
2023/07/02 03:43:13;;;;;;;2.92;2.50;;;24.20;94.00;;;;;;6195848;28;89393;-70
2023/07/02 03:46:15;;;;;;;4.00;2.88;;;24.10;94.20;;;;;;6202957;28;89140;-67
2023/07/02 03:49:17;;;;;;;3.58;2.50;;;24.20;94.00;;;;;;6207772;28;90054;-67
2023/07/02 03:52:20;;;;;;;3.92;2.63;;;24.20;94.00;;;;;;6203096;28;89139;-67
2023/07/02 03:55:22;;;;;;;3.15;2.35;;;24.20;93.90;;;;;;6208062;28;89096;-68
2023/07/02 03:58:24;;;;;;;2.60;2.40;;;24.10;93.90;;;;;;6215460;28;89072;-68
2023/07/02 04:01:26;;;;;;;2.78;2.35;;;24.10;93.80;;;;;;6196780;28;89033;-67
2023/07/02 04:04:28;;;;;;;2.80;2.47;;;24.20;93.70;;;;;;6227721;28;89113;-68
2023/07/02 04:07:32;;;;;;;3.15;2.30;;;24.20;93.80;;;;;;6218797;28;88980;-68
2023/07/02 04:10:33;;;;;;;3.72;2.20;;;24.10;93.70;;;;;;6190448;28;88356;-68
2023/07/02 04:13:35;;;;;;;3.03;2.63;;;24.10;93.70;;;;;;6192823;28;88204;-68
2023/07/02 04:16:37;;;;;;;4.18;2.10;;;24.10;93.70;;;;;;6210603;28;87995;-67
2023/07/02 04:19:39;;;;;;;3.20;2.22;;;24.10;93.80;;;;;;6197688;28;90406;-68
2023/07/02 04:22:43;;;;;;;4.88;2.80;;;24.10;93.80;;;;;;6197331;28;89376;-68
2023/07/02 04:25:44;;;;;;;2.67;2.40;;;24.10;93.80;;;;;;6204901;28;89096;-68
2023/07/02 04:28:47;;;;;;;2.47;2.28;;;24.10;93.80;;;;;;6201233;28;88241;-68
2023/07/02 04:31:49;;;;;;;3.40;2.50;;;24.10;93.80;;;;;;6208084;28;89270;-69
2023/07/02 04:34:50;;;;;;;3.10;2.47;;;24.10;93.80;;;;;;6211377;28;89085;-70
2023/07/02 04:37:54;;;;;;;2.47;2.20;;;24.10;93.90;;;;;;6210551;28;89079;-70
2023/07/02 04:41:04;;;;;;;3.67;2.28;;;24.10;93.80;;;;;;6202551;28;88376;-70
2023/07/02 04:44:06;;;;;;;2.45;2.22;;;24.10;93.80;;;;;;6212901;28;89223;-70
2023/07/02 04:47:08;;;;;;;2.53;2.22;;;24.10;93.80;;;;;;6205009;28;89363;-70
2023/07/02 04:50:11;;;;;;;3.78;2.55;;;24.10;93.80;;;;;;6205762;28;89616;-70
2023/07/02 04:53:15;;;;;;;2.88;2.30;;;24.10;93.80;;;;;;6208600;28;89341;-70
2023/07/02 04:56:17;;;;;;;3.45;2.50;;;24.10;93.80;;;;;;6228091;28;89287;-70
2023/07/02 04:59:20;;;;;;;2.42;2.22;;;24.10;93.80;;;;;;6206105;28;89208;-69
2023/07/02 05:02:22;;;;;;;3.47;2.08;;;24.10;94.30;;;;;;6203936;28;89130;-69
2023/07/02 05:05:24;;;;;;;3.55;2.80;;;24.10;93.80;;;;;;6195222;28;89170;-70
2023/07/02 05:08:27;;;;;;;2.50;2.28;;;24.10;93.90;;;;;;6217212;28;87996;-69
2023/07/02 05:11:29;;;;;;;2.38;2.17;;;24.10;93.80;;;;;;6194702;28;88295;-69
2023/07/02 05:14:31;;;;;;;2.55;2.20;;;24.10;93.90;;;;;;6193314;28;87974;-69
2023/07/02 05:17:35;;;;;;;2.88;2.20;;;24.10;93.80;;;;;;6217437;28;89202;-69
2023/07/02 05:20:37;;;;;;;2.42;2.22;;;24.10;93.80;;;;;;6196400;28;89971;-69
2023/07/02 05:23:40;;;;;;;3.03;2.03;;;24.10;93.90;;;;;;6214350;28;89058;-69
2023/07/02 05:26:46;;;;;;;2.83;2.10;;;24.10;93.90;;;;;;6205170;28;89101;-69
2023/07/02 05:29:48;;;;;;;2.22;2.03;;;24.10;93.90;;;;;;6207475;28;87978;-69
2023/07/02 05:32:50;;;;;;;3.03;2.08;;;24.10;93.90;;;;;;6209269;28;89094;-69
2023/07/02 05:35:52;;;;;;;2.70;2.22;;;24.10;94.00;;;;;;6181106;28;90431;-69
2023/07/02 05:38:57;;;;;;;2.50;2.30;;;24.10;94.00;;;;;;6195771;28;89013;-69
2023/07/02 05:41:58;;;;;;;2.55;2.10;;;24.10;94.00;;;;;;6184947;28;88455;-69
2023/07/02 05:45:00;;;;;;;3.22;2.67;;;24.10;94.00;;;;;;6183029;28;89210;-68
2023/07/02 05:48:03;;;;;;;2.78;2.30;;;24.10;94.00;;;;;;6205724;28;89045;-69
2023/07/02 05:51:05;;;;;;;2.67;2.28;;;24.10;94.10;;;;;;6204683;28;90501;-69
2023/07/02 05:54:08;;;;;;;2.40;2.20;;;24.10;94.10;;;;;;6206516;28;89164;-69
2023/07/02 05:57:10;;;;;;;2.15;1.95;;;24.10;94.10;;;;;;6200766;28;88051;-69
2023/07/02 06:00:13;;;;;;;2.30;2.10;;;24.10;94.20;;;;;;6209178;28;89170;-69
2023/07/02 06:03:19;;;;;;;2.33;2.13;;;24.10;94.20;;;;;;6185314;28;87984;-69
2023/07/02 06:06:24;;;;;;;2.35;2.15;;;24.10;94.30;;;;;;6198397;28;89238;-70
2023/07/02 06:09:27;;;;;;;2.15;1.98;;;24.10;94.40;;;;;;6206373;28;89411;-70
2023/07/02 06:12:29;;;;;;;2.40;2.20;;;24.00;94.50;;;;;;6206027;28;87260;-70
2023/07/02 06:15:32;;;;;;;3.53;2.58;;;24.10;94.60;;;;;;6193033;28;89297;-70
2023/07/02 06:18:51;;;;;;;2.20;2.00;;;24.10;94.60;;;;;;6218047;28;89055;-70
2023/07/02 06:21:54;;;;;;;3.33;2.50;;;24.00;94.60;;;;;;6200052;28;88904;-71
2023/07/02 06:24:57;;;;;;;3.17;2.40;;;24.10;94.80;;;;;;6193084;28;89041;-70
2023/07/02 06:28:00;;;;;;;2.30;2.10;;;24.10;94.90;;;;;;6191281;28;89061;-68
2023/07/02 06:31:02;;;;;;;2.70;2.33;;;24.00;94.90;;;;;;6198449;28;89142;-67
2023/07/02 06:34:04;;;;;;;2.00;1.90;;;24.10;95.20;;;;;;6186135;28;89411;-68
2023/07/02 06:37:06;;;;;;;3.90;2.78;;;24.10;95.20;;;;;;6194872;28;89164;-68
2023/07/02 06:40:10;;;;;;;3.70;2.70;;;24.10;94.90;;;;;;6188971;28;89545;-68
2023/07/02 06:43:12;;;;;;;2.78;2.30;;;24.10;94.60;;;;;;6207802;28;88391;-68
2023/07/02 06:46:14;;;;;;;3.88;3.38;;;24.00;94.40;;;;;;6218067;28;92123;-68
2023/07/02 06:49:16;;;;;;;3.63;3.30;;;24.00;94.20;;;;;;6195219;28;89296;-68
2023/07/02 06:52:18;;;;;;;4.40;3.33;;;24.00;93.90;;;;;;6201096;28;89990;-68
2023/07/02 06:55:23;;;;;;;3.60;3.30;;;24.00;93.60;;;;;;6200245;28;89078;-68
2023/07/02 06:58:25;;;;;;;3.65;3.28;;;24.00;93.20;;;;;;6205052;28;89260;-68
2023/07/02 07:01:27;;;;;;;3.10;2.80;;;24.00;93.00;;;;;;6206623;28;89099;-68
2023/07/02 07:04:29;;;;;;;3.45;2.80;;;24.00;92.80;;;;;;6216129;28;88991;-69
2023/07/02 07:07:31;;;;;;;3.00;2.70;;;24.00;92.80;;;;;;6225334;28;89450;-68
2023/07/02 07:10:34;;;;;;;3.10;2.80;;;24.00;92.70;;;;;;6194716;28;89044;-68
2023/07/02 07:13:36;;;;;;;5.13;3.58;;;24.00;92.50;;;;;;6209172;28;88436;-68
2023/07/02 07:16:39;;;;;;;2.97;2.78;;;24.00;92.40;;;;;;6230107;28;89445;-68
2023/07/02 07:19:40;;;;;;;3.38;2.90;;;24.00;92.30;;;;;;6218100;28;90594;-69
2023/07/02 07:22:42;;;;;;;3.47;2.80;;;24.00;92.20;;;;;;6218830;28;89960;-69
2023/07/02 07:25:46;;;;;;;3.92;3.03;;;24.00;92.00;;;;;;6193660;28;90209;-69
2023/07/02 07:28:48;;;;;;;2.90;2.60;;;24.00;91.60;;;;;;6206552;28;89173;-69
2023/07/02 07:31:50;;;;;;;2.97;2.70;;;24.00;91.30;;;;;;6197889;28;87966;-69
2023/07/02 07:34:52;;;;;;;3.20;2.63;;;24.00;91.20;;;;;;6204468;28;89132;-68
2023/07/02 07:37:54;;;;;;;2.90;2.60;;;24.00;91.00;;;;;;6190416;28;89043;-68
2023/07/02 07:40:57;;;;;;;3.28;2.70;;;24.00;90.90;;;;;;6188658;28;87947;-69
2023/07/02 07:44:00;;;;;;;3.00;2.40;;;24.00;90.90;;;;;;6202382;28;88365;-68
2023/07/02 07:47:02;;;;;;;3.72;2.60;;;24.00;90.90;;;;;;6204039;28;87970;-68
2023/07/02 07:50:09;;;;;;;3.15;2.78;;;24.00;90.90;;;;;;6202935;28;88244;-68
2023/07/02 07:53:11;;;;;;;3.83;3.15;;;24.00;91.00;;;;;;6197991;28;89933;-69
2023/07/02 07:56:14;;;;;;;4.05;2.80;;;23.90;91.00;;;;;;6206417;28;89116;-69
2023/07/02 07:59:17;;;;;;;3.00;2.70;;;23.90;91.00;;;;;;6187638;28;89178;-70
2023/07/02 08:02:18;;;;;;;3.55;2.55;;;23.90;91.00;;;;;;6198485;28;89059;-69
2023/07/02 08:05:20;;;;;;;3.40;2.92;;;23.90;91.00;;;;;;6193032;28;89073;-69
2023/07/02 08:08:22;;;;;;;3.13;2.55;;;23.90;91.10;;;;;;6194740;28;89095;-69
2023/07/02 08:11:26;;;;;;;3.20;2.35;;;23.90;91.20;;;;;;6207779;28;88811;-69
2023/07/02 08:14:28;;;;;;;2.55;2.35;;;23.90;91.20;;;;;;6218668;28;89103;-68
2023/07/02 08:17:31;;;;;;;3.13;2.50;;;23.90;91.40;;;;;;6209560;28;89075;-69
2023/07/02 08:20:33;;;;;;;3.63;2.55;;;23.90;91.50;;;;;;6193162;28;89062;-69
2023/07/02 08:23:35;;;;;;;3.83;2.72;;;23.90;91.60;;;;;;6205359;28;90146;-68
2023/07/02 08:26:38;;;;;;;2.75;2.55;;;23.90;91.70;;;;;;6197592;28;89181;-69
2023/07/02 08:29:40;;;;;;;3.08;2.33;;;23.90;91.80;;;;;;6199613;28;87979;-68
2023/07/02 08:32:42;;;;;;;2.85;2.55;;;23.90;91.80;;;;;;6197848;28;88985;-68
2023/07/02 08:35:44;;;;;;;2.78;2.47;;;23.90;91.90;;;;;;6203357;28;89068;-68
2023/07/02 08:38:46;;;;;;;3.45;2.53;;;23.90;91.90;;;;;;6195300;28;88980;-68
2023/07/02 08:41:49;;;;;;;3.20;2.50;;;24.00;92.00;;;;;;6197164;28;87980;-68
2023/07/02 08:44:55;;;;;;;2.95;2.63;;;23.90;92.00;;;;;;6206977;28;88354;-69
2023/07/02 08:47:58;;;;;;;2.60;2.40;;;23.90;92.00;;;;;;6208293;28;89305;-68
2023/07/02 08:50:59;;;;;;;2.47;2.20;;;23.90;92.00;;;;;;6212411;28;89867;-68
2023/07/02 08:54:02;;;;;;;2.30;2.10;;;23.90;92.00;;;;;;6200148;28;90254;-69
2023/07/02 08:57:07;;;;;;;2.58;2.35;;;23.90;92.00;;;;;;6207022;28;88908;-69
2023/07/02 09:00:10;;;;;;;2.78;2.35;;;23.90;92.00;;;;;;6191032;28;89616;-68
2023/07/02 09:03:15;;;;;;;2.92;2.28;;;23.90;92.10;;;;;;6225415;28;89389;-69
2023/07/02 09:06:19;;;;;;;2.58;2.35;;;23.90;92.50;;;;;;6213148;28;89025;-70
2023/07/02 09:09:22;;;;;;;3.28;2.25;;;23.90;92.10;;;;;;6206856;28;88740;-69
2023/07/02 09:12:26;;;;;;;3.58;2.50;;;23.90;92.00;;;;;;6219575;28;88309;-68
2023/07/02 09:15:35;;;;;;;2.78;2.40;;;24.00;92.00;;;;;;6213654;28;88326;-67
2023/07/02 09:18:37;;;;;;;2.50;2.30;;;24.00;92.10;;;;;;6183263;28;89397;-69
2023/07/02 09:21:41;;;;;;;3.45;2.70;;;23.90;92.10;;;;;;6205067;28;89178;-69
2023/07/02 09:24:43;;;;;;;2.95;2.63;;;23.90;92.00;;;;;;6199950;28;90130;-68
2023/07/02 09:27:47;;;;;;;3.45;2.50;;;23.90;92.00;;;;;;6191073;28;89378;-71
2023/07/02 09:30:53;;;;;;;2.50;2.30;;;23.90;92.00;;;;;;6191541;28;88909;-68
2023/07/02 09:34:02;;;;;;;2.60;2.40;;;23.90;91.90;;;;;;6196464;28;89054;-68
2023/07/02 09:37:06;;;;;;;3.22;2.47;;;23.90;91.90;;;;;;6216707;28;89068;-67
2023/07/02 09:40:09;;;;;;;3.58;2.45;;;23.90;91.90;;;;;;6209400;28;89147;-66
2023/07/02 09:43:13;;;;;;;2.58;2.28;;;23.90;91.80;;;;;;6214241;28;89183;-72
2023/07/02 09:46:15;;;;;;;2.97;2.72;;;23.90;92.70;;;;;;6191498;28;88425;-70
2023/07/02 09:49:20;;;;;;;4.70;3.20;;;23.90;93.30;;;;;;6204650;28;89007;-71
2023/07/02 09:52:24;;;;;;;3.00;2.70;;;24.00;93.40;;;;;;6202681;28;88028;-71
2023/07/02 09:55:26;;;;;;;3.20;2.70;;;24.10;93.90;;;;;;6203725;28;90484;-70
2023/07/02 09:58:31;;;;;;;3.75;2.90;;;24.10;93.20;;;;;;6203067;28;89204;-68
2023/07/02 10:01:33;;;;;;;3.30;3.00;;;24.20;92.80;;;;;;6204945;28;89590;-67
2023/07/02 10:04:43;;;;;;;3.13;2.83;;;24.20;92.70;;;;;;6211470;28;89042;-66
2023/07/02 10:07:45;;;;;;;3.00;2.70;;;24.10;92.50;;;;;;6222507;28;89301;-66
2023/07/02 10:11:25;;;;;;;3.83;2.97;;;24.20;92.40;;;;;;6193694;28;89390;-66
2023/07/02 10:14:40;;;;;;;2.83;2.63;;;24.10;92.00;;;;;;6188621;28;89162;-66
2023/07/02 10:17:42;;;;;;;3.00;2.70;;;24.10;91.90;;;;;;6220067;28;88371;-66
2023/07/02 10:20:44;;;;;;;2.53;2.33;;;24.10;91.70;;;;;;6200493;28;89135;-67
2023/07/02 10:23:46;;;;;;;3.50;2.70;;;24.10;91.60;;;;;;6211064;28;89027;-65
2023/07/02 10:26:56;;;;;;;2.90;2.60;;;24.10;91.70;;;;;;6190298;28;89977;-67
2023/07/02 10:29:59;;;;;;;4.68;3.03;;;24.10;91.70;;;;;;6208166;28;89720;-67
2023/07/02 10:33:12;;;;;;;3.40;2.67;;;24.10;91.70;;;;;;6186304;28;90733;-67
2023/07/02 10:36:25;;;;;;;3.90;2.67;;;24.10;91.70;;;;;;6207708;28;89026;-67
2023/07/02 10:39:27;;;;;;;4.07;2.88;;;24.10;91.70;;;;;;6208109;28;89024;-66
2023/07/02 10:42:29;;;;;;;3.30;2.80;;;24.10;91.70;;;;;;6205831;28;89095;-67
2023/07/02 10:45:36;;;;;;;3.00;2.80;;;24.10;91.70;;;;;;6202053;28;89658;-67
2023/07/02 10:48:38;;;;;;;3.35;2.97;;;24.10;91.70;;;;;;6219098;28;88905;-67
2023/07/02 10:51:40;;;;;;;4.43;3.30;;;24.10;92.10;;;;;;6206417;28;89815;-67
2023/07/02 10:54:44;;;;;;;3.63;2.97;;;24.10;91.60;;;;;;6200851;28;89380;-67
2023/07/02 10:57:46;;;;;;;3.47;2.78;;;24.10;91.60;;;;;;6199867;28;90065;-67
2023/07/02 11:00:50;;;;;;;3.15;2.85;;;24.10;91.70;;;;;;6196640;28;89089;-66
2023/07/02 11:04:00;;;;;;;3.25;2.90;;;24.10;91.70;;;;;;6186400;28;89012;-67
2023/07/02 11:07:02;;;;;;;3.72;2.83;;;24.10;91.60;;;;;;6195736;28;89058;-67
2023/07/02 11:10:05;;;;;;;3.38;2.95;;;24.10;91.60;;;;;;6209467;28;89054;-67
2023/07/02 11:13:14;;;;;;;3.80;3.50;;;24.10;91.70;;;;;;6197565;28;89103;-67
2023/07/02 11:16:25;;;;;;;4.03;3.58;;;24.10;92.10;;;;;;6208337;28;89010;-67
2023/07/02 11:19:27;;;;;;;4.43;4.03;;;24.10;92.30;;;;;;6210479;28;88251;-67
2023/07/02 11:22:33;;;;;;;4.03;3.63;;;24.10;92.50;;;;;;6205763;28;89096;-67
2023/07/02 11:25:35;;;;;;;5.28;3.65;;;24.10;92.60;;;;;;6198735;28;88974;-67
2023/07/02 11:28:48;;;;;;;4.65;3.53;;;24.10;92.60;;;;;;6194448;28;90082;-67
2023/07/02 11:31:52;;;;;;;3.72;3.40;;;24.10;92.80;;;;;;6208926;28;89074;-69
2023/07/02 11:34:55;;;;;;;6.15;3.53;;;24.10;92.90;;;;;;6216237;28;87960;-66
2023/07/02 11:37:57;;;;;;;4.45;3.33;;;24.10;93.00;;;;;;6213477;28;89159;-66
2023/07/02 11:40:59;;;;;;;4.68;3.40;;;24.10;92.80;;;;;;6206539;28;89041;-65
2023/07/02 11:44:01;;;;;;;5.15;3.42;;;24.10;92.80;;;;;;6200514;28;89301;-66
2023/07/02 11:47:05;;;;;;;3.72;3.28;;;24.10;92.70;;;;;;6214090;28;89858;-66
2023/07/02 11:50:08;;;;;;;4.38;3.22;;;24.10;92.80;;;;;;6211251;28;88624;-66
2023/07/02 11:53:10;;;;;;;4.72;3.53;;;24.10;93.00;;;;;;6194703;28;89273;-66
2023/07/02 11:56:13;;;;;;;3.70;3.25;;;24.10;93.00;;;;;;6203615;28;89138;-66
2023/07/02 11:59:15;;;;;;;3.38;3.08;;;24.10;93.10;;;;;;6194810;28;90229;-65
2023/07/02 12:02:18;;;;;;;3.67;3.15;;;24.10;93.10;;;;;;6210248;28;89245;-66
2023/07/02 12:05:20;;;;;;;4.60;3.40;;;24.10;93.10;;;;;;6217191;28;89277;-66
2023/07/02 12:08:22;;;;;;;3.30;3.00;;;24.10;93.10;;;;;;6208954;28;89025;-66
2023/07/02 12:11:24;;;;;;;3.25;2.90;;;24.10;93.10;;;;;;6207348;28;89092;-66
2023/07/02 12:14:26;;;;;;;5.63;3.20;;;24.10;93.10;;;;;;6212184;28;89077;-66
2023/07/02 12:17:29;;;;;;;3.30;2.88;;;24.10;93.00;;;;;;6204541;28;89068;-66
2023/07/02 12:20:31;;;;;;;3.40;2.83;;;24.10;93.00;;;;;;6205715;28;88342;-66
2023/07/02 12:23:33;;;;;;;3.70;2.97;;;24.10;92.90;;;;;;6205487;28;89090;-66
2023/07/02 12:26:35;;;;;;;3.20;2.90;;;24.10;92.90;;;;;;6203184;28;89033;-66
2023/07/02 12:29:38;;;;;;;4.32;2.80;;;24.10;93.00;;;;;;6193570;28;90036;-66
2023/07/02 12:32:42;;;;;;;3.60;3.30;;;24.10;93.00;;;;;;6202692;28;88047;-66
2023/07/02 12:35:44;;;;;;;3.85;3.20;;;24.10;93.00;;;;;;6194118;28;89460;-66
2023/07/02 12:38:46;;;;;;;4.43;3.40;;;24.10;93.10;;;;;;6186687;28;89356;-66
2023/07/02 12:41:48;;;;;;;3.22;2.92;;;24.10;93.10;;;;;;6198410;28;89116;-66
2023/07/02 12:44:50;;;;;;;3.75;3.00;;;24.10;93.10;;;;;;6202086;28;89143;-66
2023/07/02 12:47:53;;;;;;;4.00;3.03;;;24.10;93.10;;;;;;6195623;28;89101;-66
2023/07/02 12:50:56;;;;;;;3.13;2.83;;;24.10;93.10;;;;;;6191078;28;88405;-66
2023/07/02 12:53:58;;;;;;;3.28;2.95;;;24.20;93.10;;;;;;6199061;28;89095;-66
2023/07/02 12:57:00;;;;;;;2.70;2.50;;;24.10;93.10;;;;;;6197032;28;89446;-66
2023/07/02 13:00:05;;;;;;;3.78;2.92;;;24.10;93.10;;;;;;6197603;28;89933;-66
2023/07/02 13:03:15;;;;;;;3.20;2.90;;;24.10;93.00;;;;;;6192511;28;88020;-67
2023/07/02 13:06:19;;;;;;;3.08;2.78;;;24.10;93.00;;;;;;6187627;28;88027;-67
2023/07/02 13:09:22;;;;;;;3.33;3.03;;;24.10;92.90;;;;;;6206829;28;88337;-67
2023/07/02 13:12:26;;;;;;;3.83;2.90;;;24.10;93.00;;;;;;6204750;28;88286;-67
2023/07/02 13:15:30;;;;;;;3.50;3.20;;;24.10;92.90;;;;;;6206357;28;88029;-68
2023/07/02 13:18:35;;;;;;;3.17;2.88;;;24.10;93.00;;;;;;6207369;28;88367;-67
2023/07/02 13:21:48;;;;;;;3.67;2.70;;;24.10;93.10;;;;;;6197047;28;87393;-67
2023/07/02 13:24:51;;;;;;;3.30;3.00;;;24.10;93.10;;;;;;6188156;28;88028;-69
2023/07/02 13:27:55;;;;;;;4.65;3.28;;;24.10;93.20;;;;;;6196395;28;87291;-69
2023/07/02 13:30:58;;;;;;;4.32;3.25;;;24.10;93.30;;;;;;6191897;28;88955;-77
2023/07/02 13:34:04;;;;;;;5.05;3.38;;;24.10;93.20;;;;;;6183377;28;88230;-69
2023/07/02 13:37:07;;;;;;;7.40;6.00;;;24.10;93.80;;;;;;6208860;28;87140;-68
2023/07/02 13:40:12;;;;;;;6.20;4.35;;;24.10;99.90;;;;;;6210061;28;87070;-68
2023/07/02 13:43:16;;;;;;;5.90;4.28;;;24.20;99.90;;;;;;6190540;28;88068;-69
2023/07/02 13:46:19;;;;;;;5.07;4.05;;;24.20;96.90;;;;;;6190610;28;87946;-68
2023/07/02 13:49:25;;;;;;;5.57;4.22;;;24.10;96.40;;;;;;6199056;28;87990;-67
2023/07/02 13:52:28;;;;;;;4.85;3.88;;;24.20;97.60;;;;;;6210899;28;87335;-67
2023/07/02 13:55:32;;;;;;;5.00;4.10;;;24.20;97.80;;;;;;6195287;28;88088;-68
2023/07/02 13:59:05;;;;;;;4.68;4.10;;;24.20;97.60;;;;;;6192113;28;87898;-68
2023/07/02 14:02:09;;;;;;;5.47;4.32;;;24.20;96.00;;;;;;6199383;28;89248;-68
2023/07/02 14:05:12;;;;;;;5.13;4.15;;;24.30;95.90;;;;;;6182018;28;90107;-67
2023/07/02 14:08:16;;;;;;;9.18;4.82;;;24.30;96.00;;;;;;6198885;28;88158;-68
2023/07/02 14:11:20;;;;;;;7.47;4.50;;;24.30;95.80;;;;;;6197049;28;88039;-68
2023/07/02 14:14:25;;;;;;;5.07;4.20;;;24.40;96.30;;;;;;6198723;28;88199;-67
2023/07/02 14:17:28;;;;;;;6.80;4.65;;;24.40;95.20;;;;;;6191859;28;87813;-67
2023/07/02 14:20:32;;;;;;;6.22;4.05;;;24.50;94.50;;;;;;6200428;28;88232;-68
2023/07/02 14:23:35;;;;;;;6.75;4.28;;;24.50;94.10;;;;;;6194809;28;87121;-68
2023/07/02 14:26:39;;;;;;;5.38;4.10;;;24.50;93.70;;;;;;6195745;28;88347;-68
2023/07/02 14:29:44;;;;;;;4.35;3.80;;;24.50;93.40;;;;;;6198502;28;87921;-68
2023/07/02 14:32:47;;;;;;;4.65;4.10;;;24.50;93.40;;;;;;6184303;28;89724;-68
2023/07/02 14:35:50;;;;;;;4.50;3.90;;;24.50;93.20;;;;;;6197726;28;88172;-68
2023/07/02 14:38:54;;;;;;;5.05;4.05;;;24.50;93.10;;;;;;6200723;28;89580;-67
2023/07/02 14:41:57;;;;;;;6.65;4.82;;;24.50;92.90;;;;;;6183553;28;87847;-68
2023/07/02 14:45:01;;;;;;;4.97;4.47;;;24.50;92.60;;;;;;6194566;28;87992;-67
2023/07/02 14:48:04;;;;;;;6.68;5.20;;;24.40;92.50;;;;;;6191850;28;88039;-68
2023/07/02 14:51:06;;;;;;;5.38;4.65;;;24.50;92.30;;;;;;6190598;28;87894;-68
2023/07/02 14:54:09;;;;;;;6.38;5.00;;;24.50;92.20;;;;;;6180731;28;88309;-66
2023/07/02 14:57:11;;;;;;;6.65;5.18;;;24.40;92.10;;;;;;6186663;28;89434;-67
2023/07/02 15:00:16;;;;;;;5.50;5.00;;;24.50;92.00;;;;;;6189169;28;89051;-68
2023/07/02 15:03:34;;;;;;;6.35;5.15;;;24.40;91.80;;;;;;6187895;28;90085;-68
2023/07/02 15:06:37;;;;;;;5.78;5.18;;;24.40;91.70;;;;;;6197259;28;88321;-69
2023/07/02 15:09:38;;;;;;;7.13;5.63;;;24.40;91.70;;;;;;6195632;28;89229;-68
2023/07/02 15:12:41;;;;;;;6.95;5.85;;;24.30;91.00;;;;;;6195320;28;89231;-68
2023/07/02 15:15:44;;;;;;;6.40;5.68;;;24.40;91.00;;;;;;6199038;28;89396;-67
2023/07/02 15:18:46;;;;;;;6.55;5.45;;;24.30;90.90;;;;;;6210480;28;89330;-68
2023/07/02 15:21:48;;;;;;;6.22;5.63;;;24.30;91.00;;;;;;6201693;28;89061;-68
2023/07/02 15:24:50;;;;;;;6.57;5.82;;;24.30;91.00;;;;;;6192533;28;87710;-68
2023/07/02 15:27:53;;;;;;;6.47;5.75;;;24.30;90.80;;;;;;6201026;28;89198;-68
2023/07/02 15:31:01;;;;;;;6.93;5.78;;;24.30;90.90;;;;;;6211918;28;89086;-67
2023/07/02 15:34:02;;;;;;;7.15;6.43;;;24.30;90.80;;;;;;6192997;28;90147;-68
2023/07/02 15:37:05;;;;;;;9.38;7.03;;;24.30;90.70;;;;;;6207006;28;89255;-67
2023/07/02 15:40:08;;;;;;;8.25;6.68;;;24.40;90.70;;;;;;6198356;28;88028;-67
2023/07/02 15:43:10;;;;;;;7.07;6.28;;;24.30;90.70;;;;;;6206675;28;89024;-68
2023/07/02 15:46:17;;;;;;;8.02;6.40;;;24.40;90.80;;;;;;6199469;28;88964;-68
2023/07/02 15:49:20;;;;;;;8.00;6.25;;;24.30;90.70;;;;;;6205627;28;89223;-68
2023/07/02 15:52:22;;;;;;;7.80;6.68;;;24.30;90.70;;;;;;6201510;28;89038;-68
2023/07/02 15:55:24;;;;;;;7.40;6.60;;;24.30;90.70;;;;;;6204188;28;89661;-67